sensor_id;sensor_type;location;lat;lon;timestamp;pressure;altitude;pressure_sealevel;temperature;humidity
41596;BME280;27283;52.504;13.358;2022-11-15T00:02:11;101145.06;;;7.03;88.64
41596;BME280;27283;52.504;13.358;2022-11-15T00:04:42;101138.16;;;7.32;87.67
41596;BME280;27283;52.504;13.358;2022-11-15T00:07:13;101134.28;;;7.15;88.42
41596;BME280;27283;52.504;13.358;2022-11-15T00:10:05;101133.34;;;7.25;87.52
41596;BME280;27283;52.504;13.358;2022-11-15T00:12:36;101121.34;;;7.20;87.52
41596;BME280;27283;52.504;13.358;2022-11-15T00:15:10;101119.00;;;7.26;87.27
41596;BME280;27283;52.504;13.358;2022-11-15T00:17:42;101127.50;;;7.10;88.21
41596;BME280;27283;52.504;13.358;2022-11-15T00:20:13;101114.25;;;6.99;88.62
41596;BME280;27283;52.504;13.358;2022-11-15T00:22:45;101110.16;;;7.05;88.40
41596;BME280;27283;52.504;13.358;2022-11-15T00:25:16;101103.78;;;7.27;87.42
41596;BME280;27283;52.504;13.358;2022-11-15T00:27:47;101118.44;;;7.02;88.05
41596;BME280;27283;52.504;13.358;2022-11-15T00:30:22;101103.97;;;7.04;88.00
41596;BME280;27283;52.504;13.358;2022-11-15T00:32:54;101100.50;;;7.14;87.60
41596;BME280;27283;52.504;13.358;2022-11-15T00:35:25;101099.59;;;7.34;86.70
41596;BME280;27283;52.504;13.358;2022-11-15T00:37:56;101105.22;;;7.31;86.60
41596;BME280;27283;52.504;13.358;2022-11-15T00:40:27;101106.31;;;7.28;86.66
41596;BME280;27283;52.504;13.358;2022-11-15T00:42:59;101100.09;;;7.18;87.29
41596;BME280;27283;52.504;13.358;2022-11-15T00:45:33;101099.19;;;7.08;87.40
41596;BME280;27283;52.504;13.358;2022-11-15T00:48:06;101093.84;;;7.08;87.46
41596;BME280;27283;52.504;13.358;2022-11-15T00:50:39;101093.78;;;7.29;86.79
41596;BME280;27283;52.504;13.358;2022-11-15T00:53:12;101094.47;;;7.21;87.11
41596;BME280;27283;52.504;13.358;2022-11-15T00:56:00;101082.44;;;6.96;87.81
41596;BME280;27283;52.504;13.358;2022-11-15T00:58:32;101086.44;;;7.21;85.94
41596;BME280;27283;52.504;13.358;2022-11-15T01:01:13;101092.38;;;7.25;86.39
41596;BME280;27283;52.504;13.358;2022-11-15T01:03:46;101098.22;;;7.09;86.58
41596;BME280;27283;52.504;13.358;2022-11-15T01:06:18;101084.44;;;7.14;86.15
41596;BME280;27283;52.504;13.358;2022-11-15T01:08:51;101088.34;;;7.00;87.29
41596;BME280;27283;52.504;13.358;2022-11-15T01:11:24;101082.28;;;6.98;87.29
41596;BME280;27283;52.504;13.358;2022-11-15T01:13:57;101075.03;;;6.79;88.24
41596;BME280;27283;52.504;13.358;2022-11-15T01:16:32;101083.97;;;6.99;87.33
41596;BME280;27283;52.504;13.358;2022-11-15T01:19:05;101076.59;;;6.81;88.36
41596;BME280;27283;52.504;13.358;2022-11-15T01:21:52;101075.66;;;6.92;88.14
41596;BME280;27283;52.504;13.358;2022-11-15T01:24:24;101074.31;;;6.77;87.77
41596;BME280;27283;52.504;13.358;2022-11-15T01:26:55;101070.56;;;6.89;87.83
41596;BME280;27283;52.504;13.358;2022-11-15T01:29:26;101070.25;;;6.82;87.79
41596;BME280;27283;52.504;13.358;2022-11-15T01:32:00;101058.44;;;6.85;87.84
41596;BME280;27283;52.504;13.358;2022-11-15T01:34:33;101059.19;;;6.97;87.37
41596;BME280;27283;52.504;13.358;2022-11-15T01:37:05;101057.41;;;7.07;86.75
41596;BME280;27283;52.504;13.358;2022-11-15T01:39:36;101053.22;;;6.83;87.42
41596;BME280;27283;52.504;13.358;2022-11-15T01:42:12;101049.31;;;6.87;86.68
41596;BME280;27283;52.504;13.358;2022-11-15T01:44:48;101039.66;;;6.65;88.37
41596;BME280;27283;52.504;13.358;2022-11-15T01:50:17;101027.78;;;6.58;88.51
41596;BME280;27283;52.504;13.358;2022-11-15T01:53:38;101018.53;;;6.62;88.39
41596;BME280;27283;52.504;13.358;2022-11-15T01:56:18;101021.81;;;6.66;88.10
41596;BME280;27283;52.504;13.358;2022-11-15T01:58:53;101017.97;;;6.59;88.62
41596;BME280;27283;52.504;13.358;2022-11-15T02:01:38;101023.19;;;6.60;88.39
41596;BME280;27283;52.504;13.358;2022-11-15T02:04:16;101010.75;;;6.80;87.39
41596;BME280;27283;52.504;13.358;2022-11-15T02:06:51;101007.78;;;6.73;87.19
41596;BME280;27283;52.504;13.358;2022-11-15T02:09:24;101013.69;;;6.77;87.02
41596;BME280;27283;52.504;13.358;2022-11-15T02:11:57;101009.22;;;6.87;86.95
41596;BME280;27283;52.504;13.358;2022-11-15T02:14:36;101011.00;;;6.77;86.73
41596;BME280;27283;52.504;13.358;2022-11-15T02:20:33;101016.69;;;6.63;87.59
41596;BME280;27283;52.504;13.358;2022-11-15T02:23:31;101008.44;;;6.66;87.39
41596;BME280;27283;52.504;13.358;2022-11-15T02:26:35;101008.81;;;6.61;87.72
41596;BME280;27283;52.504;13.358;2022-11-15T02:29:17;101010.94;;;6.57;87.31
41596;BME280;27283;52.504;13.358;2022-11-15T02:31:58;101013.03;;;6.54;87.87
41596;BME280;27283;52.504;13.358;2022-11-15T02:34:42;101013.03;;;6.54;88.18
41596;BME280;27283;52.504;13.358;2022-11-15T02:37:23;101010.66;;;6.61;87.56
41596;BME280;27283;52.504;13.358;2022-11-15T02:40:06;101008.22;;;6.48;88.61
41596;BME280;27283;52.504;13.358;2022-11-15T02:42:45;101008.59;;;6.74;86.36
41596;BME280;27283;52.504;13.358;2022-11-15T02:48:26;100992.19;;;6.48;88.24
41596;BME280;27283;52.504;13.358;2022-11-15T02:50:59;100995.78;;;6.68;86.36
41596;BME280;27283;52.504;13.358;2022-11-15T02:53:32;100988.03;;;6.34;88.68
41596;BME280;27283;52.504;13.358;2022-11-15T02:56:04;100993.44;;;6.44;88.65
41596;BME280;27283;52.504;13.358;2022-11-15T02:58:54;100987.44;;;6.30;89.19
41596;BME280;27283;52.504;13.358;2022-11-15T03:01:38;100983.28;;;6.37;88.93
41596;BME280;27283;52.504;13.358;2022-11-15T03:04:24;100988.16;;;6.32;89.61
41596;BME280;27283;52.504;13.358;2022-11-15T03:07:07;100987.81;;;6.47;88.73
41596;BME280;27283;52.504;13.358;2022-11-15T03:09:50;100993.94;;;6.68;87.24
41596;BME280;27283;52.504;13.358;2022-11-15T03:12:27;100981.84;;;6.64;87.88
41596;BME280;27283;52.504;13.358;2022-11-15T03:15:01;100983.81;;;6.62;87.99
41596;BME280;27283;52.504;13.358;2022-11-15T03:17:40;100989.06;;;6.73;87.49
41596;BME280;27283;52.504;13.358;2022-11-15T03:20:17;100985.91;;;6.59;86.68
41596;BME280;27283;52.504;13.358;2022-11-15T03:22:50;100985.91;;;6.59;87.69
41596;BME280;27283;52.504;13.358;2022-11-15T03:25:26;100983.72;;;6.43;88.37
41596;BME280;27283;52.504;13.358;2022-11-15T03:31:09;100986.53;;;6.41;89.22
41596;BME280;27283;52.504;13.358;2022-11-15T03:34:13;100982.06;;;6.51;88.02
41596;BME280;27283;52.504;13.358;2022-11-15T03:36:51;100984.63;;;6.53;87.78
41596;BME280;27283;52.504;13.358;2022-11-15T03:39:26;100985.19;;;6.56;87.60
41596;BME280;27283;52.504;13.358;2022-11-15T03:42:08;100982.03;;;6.42;88.36
41596;BME280;27283;52.504;13.358;2022-11-15T03:44:49;100983.22;;;6.28;88.97
41596;BME280;27283;52.504;13.358;2022-11-15T03:47:28;100979.25;;;6.43;88.95
41596;BME280;27283;52.504;13.358;2022-11-15T03:50:08;100980.44;;;6.70;87.99
41596;BME280;27283;52.504;13.358;2022-11-15T03:52:47;100970.31;;;6.64;87.89
41596;BME280;27283;52.504;13.358;2022-11-15T03:55:22;100970.31;;;6.64;87.53
41596;BME280;27283;52.504;13.358;2022-11-15T03:57:57;100967.69;;;6.73;86.98
41596;BME280;27283;52.504;13.358;2022-11-15T04:00:31;100974.81;;;7.04;86.01
41596;BME280;27283;52.504;13.358;2022-11-15T04:03:05;100965.94;;;6.63;87.37
41596;BME280;27283;52.504;13.358;2022-11-15T04:05:38;100961.63;;;6.71;87.42
41596;BME280;27283;52.504;13.358;2022-11-15T04:08:13;100965.22;;;6.91;86.32
41596;BME280;27283;52.504;13.358;2022-11-15T04:13:39;100972.72;;;6.67;87.87
41596;BME280;27283;52.504;13.358;2022-11-15T04:16:10;100963.13;;;6.64;87.37
41596;BME280;27283;52.504;13.358;2022-11-15T04:18:42;100961.78;;;6.80;86.38
41596;BME280;27283;52.504;13.358;2022-11-15T04:21:34;100957.84;;;6.74;86.91
41596;BME280;27283;52.504;13.358;2022-11-15T04:24:20;100957.56;;;6.77;86.99
41596;BME280;27283;52.504;13.358;2022-11-15T04:26:52;100968.03;;;6.59;87.69
41596;BME280;27283;52.504;13.358;2022-11-15T04:29:24;100961.53;;;6.83;86.97
41596;BME280;27283;52.504;13.358;2022-11-15T04:32:12;100965.09;;;6.62;87.79
41596;BME280;27283;52.504;13.358;2022-11-15T04:34:43;100955.25;;;6.63;87.48
41596;BME280;27283;52.504;13.358;2022-11-15T04:37:18;100954.06;;;6.77;87.02
41596;BME280;27283;52.504;13.358;2022-11-15T04:39:49;100949.25;;;6.70;87.36
41596;BME280;27283;52.504;13.358;2022-11-15T04:42:21;100950.22;;;6.69;87.73
41596;BME280;27283;52.504;13.358;2022-11-15T04:44:53;100946.41;;;6.62;87.58
41596;BME280;27283;52.504;13.358;2022-11-15T04:47:25;100952.13;;;6.88;86.40
41596;BME280;27283;52.504;13.358;2022-11-15T04:49:58;100941.25;;;6.80;86.75
41596;BME280;27283;52.504;13.358;2022-11-15T04:52:29;100939.81;;;6.66;86.85
41596;BME280;27283;52.504;13.358;2022-11-15T04:55:04;100936.25;;;6.56;87.64
41596;BME280;27283;52.504;13.358;2022-11-15T04:57:37;100937.97;;;6.67;87.07
41596;BME280;27283;52.504;13.358;2022-11-15T05:00:13;100940.97;;;6.83;86.04
41596;BME280;27283;52.504;13.358;2022-11-15T05:02:46;100936.25;;;6.56;87.61
41596;BME280;27283;52.504;13.358;2022-11-15T05:05:30;100936.03;;;6.79;85.71
41596;BME280;27283;52.504;13.358;2022-11-15T05:08:03;100940.63;;;6.57;87.46
41596;BME280;27283;52.504;13.358;2022-11-15T05:10:39;100947.63;;;6.48;87.71
41596;BME280;27283;52.504;13.358;2022-11-15T05:13:12;100946.66;;;6.49;87.67
41596;BME280;27283;52.504;13.358;2022-11-15T05:16:14;100953.53;;;6.52;88.01
41596;BME280;27283;52.504;13.358;2022-11-15T05:18:52;100949.03;;;6.52;87.76
41596;BME280;27283;52.504;13.358;2022-11-15T05:21:26;100949.13;;;6.72;87.36
41596;BME280;27283;52.504;13.358;2022-11-15T05:24:00;100947.97;;;6.74;86.94
41596;BME280;27283;52.504;13.358;2022-11-15T05:27:00;100951.34;;;6.67;86.93
41596;BME280;27283;52.504;13.358;2022-11-15T05:29:34;100944.56;;;6.63;87.41
41596;BME280;27283;52.504;13.358;2022-11-15T05:34:57;100945.13;;;7.07;85.43
41596;BME280;27283;52.504;13.358;2022-11-15T05:37:30;100943.81;;;6.91;85.71
41596;BME280;27283;52.504;13.358;2022-11-15T05:40:05;100947.06;;;7.05;83.91
41596;BME280;27283;52.504;13.358;2022-11-15T05:42:41;100948.16;;;6.83;85.78
41596;BME280;27283;52.504;13.358;2022-11-15T05:45:31;100933.59;;;6.25;88.59
41596;BME280;27283;52.504;13.358;2022-11-15T05:48:06;100937.34;;;6.44;88.41
41596;BME280;27283;52.504;13.358;2022-11-15T05:50:43;100941.38;;;6.79;87.32
41596;BME280;27283;52.504;13.358;2022-11-15T05:53:20;100940.97;;;6.83;86.33
41596;BME280;27283;52.504;13.358;2022-11-15T05:55:54;100942.94;;;6.81;85.76
41596;BME280;27283;52.504;13.358;2022-11-15T05:58:31;100949.75;;;6.64;86.36
41596;BME280;27283;52.504;13.358;2022-11-15T06:01:03;100945.91;;;6.47;87.49
41596;BME280;27283;52.504;13.358;2022-11-15T06:03:34;100946.59;;;6.39;87.52
41596;BME280;27283;52.504;13.358;2022-11-15T06:06:06;100946.25;;;6.54;87.00
41596;BME280;27283;52.504;13.358;2022-11-15T06:08:43;100952.00;;;6.49;87.37
41596;BME280;27283;52.504;13.358;2022-11-15T06:11:16;100952.56;;;6.53;87.04
41596;BME280;27283;52.504;13.358;2022-11-15T06:13:51;100945.25;;;6.55;87.06
41596;BME280;27283;52.504;13.358;2022-11-15T06:16:23;100949.59;;;6.46;87.41
41596;BME280;27283;52.504;13.358;2022-11-15T06:18:55;100950.75;;;6.32;87.90
41596;BME280;27283;52.504;13.358;2022-11-15T06:21:27;100953.72;;;6.70;86.65
41596;BME280;27283;52.504;13.358;2022-11-15T06:23:59;100958.47;;;6.56;86.91
41596;BME280;27283;52.504;13.358;2022-11-15T06:26:31;100954.69;;;6.59;87.17
41596;BME280;27283;52.504;13.358;2022-11-15T06:29:05;100965.22;;;6.61;86.69
41596;BME280;27283;52.504;13.358;2022-11-15T06:31:37;100964.56;;;6.68;86.69
41596;BME280;27283;52.504;13.358;2022-11-15T06:34:09;100964.28;;;6.71;85.96
41596;BME280;27283;52.504;13.358;2022-11-15T06:36:41;100955.69;;;6.68;86.20
41596;BME280;27283;52.504;13.358;2022-11-15T06:39:12;100966.34;;;6.58;86.51
41596;BME280;27283;52.504;13.358;2022-11-15T06:41:44;100955.97;;;6.65;86.76
41596;BME280;27283;52.504;13.358;2022-11-15T06:44:19;100963.94;;;6.55;87.23
41596;BME280;27283;52.504;13.358;2022-11-15T06:46:51;100955.25;;;6.63;86.80
41596;BME280;27283;52.504;13.358;2022-11-15T06:49:22;100965.38;;;6.59;87.55
41596;BME280;27283;52.504;13.358;2022-11-15T06:51:54;100973.31;;;6.80;86.52
41596;BME280;27283;52.504;13.358;2022-11-15T06:54:25;100969.69;;;6.81;86.41
41596;BME280;27283;52.504;13.358;2022-11-15T06:56:57;100972.06;;;6.84;85.89
41596;BME280;27283;52.504;13.358;2022-11-15T06:59:31;100969.41;;;6.84;85.82
41596;BME280;27283;52.504;13.358;2022-11-15T07:02:12;100976.50;;;7.15;83.91
41596;BME280;27283;52.504;13.358;2022-11-15T07:04:43;100967.00;;;6.91;85.43
41596;BME280;27283;52.504;13.358;2022-11-15T07:07:15;100976.25;;;6.67;86.57
41596;BME280;27283;52.504;13.358;2022-11-15T07:09:47;100977.09;;;6.68;87.10
41596;BME280;27283;52.504;13.358;2022-11-15T07:12:19;100974.88;;;6.83;86.64
41596;BME280;27283;52.504;13.358;2022-11-15T07:14:54;100982.84;;;7.14;85.08
41596;BME280;27283;52.504;13.358;2022-11-15T07:17:25;100986.88;;;6.98;85.07
41596;BME280;27283;52.504;13.358;2022-11-15T07:19:57;100984.75;;;6.92;85.76
41596;BME280;27283;52.504;13.358;2022-11-15T07:22:28;100991.13;;;7.10;85.23
41596;BME280;27283;52.504;13.358;2022-11-15T07:25:00;100992.66;;;7.03;85.36
41596;BME280;27283;52.504;13.358;2022-11-15T07:27:32;100989.97;;;7.03;85.26
41596;BME280;27283;52.504;13.358;2022-11-15T07:30:08;100992.38;;;7.06;85.55
41596;BME280;27283;52.504;13.358;2022-11-15T07:32:42;100991.34;;;7.48;83.85
41596;BME280;27283;52.504;13.358;2022-11-15T07:35:14;100986.94;;;7.27;85.35
41596;BME280;27283;52.504;13.358;2022-11-15T07:40:46;100985.09;;;7.08;85.50
41596;BME280;27283;52.504;13.358;2022-11-15T07:43:18;100990.28;;;7.20;85.27
41596;BME280;27283;52.504;13.358;2022-11-15T07:45:53;100988.22;;;7.33;85.15
41596;BME280;27283;52.504;13.358;2022-11-15T07:48:27;100986.81;;;7.49;84.00
41596;BME280;27283;52.504;13.358;2022-11-15T07:51:11;100991.88;;;7.52;83.78
41596;BME280;27283;52.504;13.358;2022-11-15T07:53:45;100982.75;;;7.64;83.73
41596;BME280;27283;52.504;13.358;2022-11-15T07:56:16;100976.69;;;7.72;83.35
41596;BME280;27283;52.504;13.358;2022-11-15T07:58:50;100978.50;;;7.81;83.13
41596;BME280;27283;52.504;13.358;2022-11-15T08:01:24;100975.78;;;8.10;81.84
41596;BME280;27283;52.504;13.358;2022-11-15T08:03:57;100982.25;;;8.18;82.19
41596;BME280;27283;52.504;13.358;2022-11-15T08:06:28;100981.22;;;8.48;80.57
41596;BME280;27283;52.504;13.358;2022-11-15T08:09:00;100976.66;;;8.11;81.48
41596;BME280;27283;52.504;13.358;2022-11-15T08:11:32;100969.41;;;8.21;81.74
41596;BME280;27283;52.504;13.358;2022-11-15T08:14:04;100966.59;;;8.23;81.50
41596;BME280;27283;52.504;13.358;2022-11-15T08:16:38;100966.63;;;8.13;81.64
41596;BME280;27283;52.504;13.358;2022-11-15T08:19:10;100966.75;;;8.11;81.62
41596;BME280;27283;52.504;13.358;2022-11-15T08:21:41;100964.88;;;8.31;81.52
41596;BME280;27283;52.504;13.358;2022-11-15T08:24:13;100962.31;;;8.49;81.39
41596;BME280;27283;52.504;13.358;2022-11-15T08:26:45;100964.81;;;8.61;80.06
41596;BME280;27283;52.504;13.358;2022-11-15T08:29:17;100968.31;;;8.61;79.94
41596;BME280;27283;52.504;13.358;2022-11-15T08:31:51;100965.56;;;8.53;80.23
41596;BME280;27283;52.504;13.358;2022-11-15T08:34:23;100964.38;;;8.56;79.63
41596;BME280;27283;52.504;13.358;2022-11-15T08:36:54;100968.47;;;8.60;80.47
41596;BME280;27283;52.504;13.358;2022-11-15T08:39:26;100953.03;;;8.72;79.70
41596;BME280;27283;52.504;13.358;2022-11-15T08:41:58;100964.75;;;8.71;80.75
41596;BME280;27283;52.504;13.358;2022-11-15T08:44:31;100957.44;;;8.63;80.67
41596;BME280;27283;52.504;13.358;2022-11-15T08:47:05;100966.03;;;9.40;78.05
41596;BME280;27283;52.504;13.358;2022-11-15T08:49:38;100970.41;;;9.41;77.74
41596;BME280;27283;52.504;13.358;2022-11-15T08:52:09;100970.00;;;9.36;77.18
41596;BME280;27283;52.504;13.358;2022-11-15T08:54:41;100966.91;;;9.13;78.13
41596;BME280;27283;52.504;13.358;2022-11-15T08:57:13;100970.22;;;9.25;77.79
41596;BME280;27283;52.504;13.358;2022-11-15T08:59:45;100974.06;;;9.58;76.72
41596;BME280;27283;52.504;13.358;2022-11-15T09:02:19;100979.97;;;9.62;77.27
41596;BME280;27283;52.504;13.358;2022-11-15T09:04:55;100965.84;;;9.96;75.29
41596;BME280;27283;52.504;13.358;2022-11-15T09:07:28;100963.63;;;9.91;74.77
41596;BME280;27283;52.504;13.358;2022-11-15T09:10:01;100963.38;;;9.84;75.49
41596;BME280;27283;52.504;13.358;2022-11-15T09:12:32;100966.63;;;10.14;74.78
41596;BME280;27283;52.504;13.358;2022-11-15T09:15:06;100960.72;;;10.10;74.13
41596;BME280;27283;52.504;13.358;2022-11-15T09:17:40;100954.28;;;10.29;74.06
41596;BME280;27283;52.504;13.358;2022-11-15T09:20:15;100961.16;;;10.50;73.32
41596;BME280;27283;52.504;13.358;2022-11-15T09:22:46;100964.91;;;10.66;72.57
41596;BME280;27283;52.504;13.358;2022-11-15T09:25:18;100968.22;;;10.51;72.82
41596;BME280;27283;52.504;13.358;2022-11-15T09:27:50;100970.44;;;10.56;72.71
41596;BME280;27283;52.504;13.358;2022-11-15T09:30:21;100962.38;;;10.98;71.71
41596;BME280;27283;52.504;13.358;2022-11-15T09:32:56;100967.03;;;10.88;71.54
41596;BME280;27283;52.504;13.358;2022-11-15T09:35:28;100976.72;;;10.73;71.81
41596;BME280;27283;52.504;13.358;2022-11-15T09:37:59;100972.88;;;10.75;71.94
41596;BME280;27283;52.504;13.358;2022-11-15T09:40:32;100974.38;;;11.21;70.44
41596;BME280;27283;52.504;13.358;2022-11-15T09:43:25;100970.53;;;11.31;70.62
41596;BME280;27283;52.504;13.358;2022-11-15T09:46:06;100972.88;;;11.34;70.58
41596;BME280;27283;52.504;13.358;2022-11-15T09:48:56;100968.66;;;11.32;69.61
41596;BME280;27283;52.504;13.358;2022-11-15T09:51:30;100963.81;;;11.44;69.33
41596;BME280;27283;52.504;13.358;2022-11-15T09:54:10;100958.44;;;11.52;69.51
41596;BME280;27283;52.504;13.358;2022-11-15T09:57:10;100955.41;;;11.55;69.00
41596;BME280;27283;52.504;13.358;2022-11-15T09:59:58;100951.53;;;11.74;68.08
41596;BME280;27283;52.504;13.358;2022-11-15T10:05:51;100944.47;;;11.81;68.02
41596;BME280;27283;52.504;13.358;2022-11-15T10:08:35;100939.09;;;11.65;68.52
41596;BME280;27283;52.504;13.358;2022-11-15T10:11:14;100941.44;;;11.60;68.63
41596;BME280;27283;52.504;13.358;2022-11-15T10:14:10;100934.19;;;11.77;67.92
41596;BME280;27283;52.504;13.358;2022-11-15T10:17:12;100936.38;;;11.89;67.47
41596;BME280;27283;52.504;13.358;2022-11-15T10:19:56;100928.47;;;12.13;67.00
41596;BME280;27283;52.504;13.358;2022-11-15T10:22:40;100922.56;;;11.84;67.60
41596;BME280;27283;52.504;13.358;2022-11-15T10:25:19;100925.09;;;12.11;67.40
41596;BME280;27283;52.504;13.358;2022-11-15T10:27:54;100916.78;;;12.29;66.76
41596;BME280;27283;52.504;13.358;2022-11-15T10:30:32;100913.22;;;12.45;66.88
41596;BME280;27283;52.504;13.358;2022-11-15T10:33:22;100908.38;;;12.23;66.71
41596;BME280;27283;52.504;13.358;2022-11-15T10:36:21;100899.13;;;12.66;65.50
41596;BME280;27283;52.504;13.358;2022-11-15T10:38:58;100892.91;;;12.65;65.30
41596;BME280;27283;52.504;13.358;2022-11-15T10:41:36;100886.25;;;12.76;64.97
41596;BME280;27283;52.504;13.358;2022-11-15T10:44:22;100888.63;;;12.71;64.63
41596;BME280;27283;52.504;13.358;2022-11-15T10:47:23;100882.00;;;12.82;64.38
41596;BME280;27283;52.504;13.358;2022-11-15T10:49:59;100883.66;;;12.91;64.21
41596;BME280;27283;52.504;13.358;2022-11-15T10:52:35;100878.28;;;12.83;64.87
41596;BME280;27283;52.504;13.358;2022-11-15T10:55:28;100873.41;;;12.86;64.31
41596;BME280;27283;52.504;13.358;2022-11-15T10:58:05;100869.88;;;13.09;63.53
41596;BME280;27283;52.504;13.358;2022-11-15T11:00:39;100866.16;;;12.79;64.49
41596;BME280;27283;52.504;13.358;2022-11-15T11:03:29;100872.00;;;12.90;63.97
41596;BME280;27283;52.504;13.358;2022-11-15T11:06:09;100858.94;;;13.02;64.18
41596;BME280;27283;52.504;13.358;2022-11-15T11:08:55;100855.50;;;13.08;64.12
41596;BME280;27283;52.504;13.358;2022-11-15T11:11:47;100856.72;;;13.29;64.13
41596;BME280;27283;52.504;13.358;2022-11-15T11:14:22;100847.47;;;13.23;63.50
41596;BME280;27283;52.504;13.358;2022-11-15T11:17:04;100845.56;;;13.32;62.97
41596;BME280;27283;52.504;13.358;2022-11-15T11:19:54;100855.19;;;13.35;63.58
41596;BME280;27283;52.504;13.358;2022-11-15T11:22:37;100842.84;;;13.55;62.33
41596;BME280;27283;52.504;13.358;2022-11-15T11:25:21;100839.09;;;13.41;63.64
41596;BME280;27283;52.504;13.358;2022-11-15T11:28:10;100831.59;;;13.67;63.45
41596;BME280;27283;52.504;13.358;2022-11-15T11:31:00;100835.66;;;13.47;63.04
41596;BME280;27283;52.504;13.358;2022-11-15T11:33:44;100836.25;;;13.58;62.22
41596;BME280;27283;52.504;13.358;2022-11-15T11:36:25;100839.91;;;13.42;63.14
41596;BME280;27283;52.504;13.358;2022-11-15T11:39:17;100840.81;;;13.72;63.72
41596;BME280;27283;52.504;13.358;2022-11-15T11:42:01;100836.50;;;13.48;63.02
41596;BME280;27283;52.504;13.358;2022-11-15T11:44:48;100835.53;;;13.79;62.70
41596;BME280;27283;52.504;13.358;2022-11-15T11:47:30;100824.31;;;13.67;63.13
41596;BME280;27283;52.504;13.358;2022-11-15T11:50:11;100825.16;;;13.53;63.02
41596;BME280;27283;52.504;13.358;2022-11-15T11:52:54;100826.56;;;13.93;63.45
41596;BME280;27283;52.504;13.358;2022-11-15T11:55:34;100829.75;;;13.82;62.68
41596;BME280;27283;52.504;13.358;2022-11-15T11:58:13;100824.16;;;13.98;62.21
41596;BME280;27283;52.504;13.358;2022-11-15T12:00:55;100817.94;;;13.83;62.87
41596;BME280;27283;52.504;13.358;2022-11-15T12:03:30;100812.91;;;13.80;63.20
41596;BME280;27283;52.504;13.358;2022-11-15T12:06:14;100802.72;;;13.67;63.06
41596;BME280;27283;52.504;13.358;2022-11-15T12:08:59;100801.88;;;13.67;63.08
41596;BME280;27283;52.504;13.358;2022-11-15T12:11:38;100802.09;;;13.80;62.88
41596;BME280;27283;52.504;13.358;2022-11-15T12:14:25;100795.38;;;13.91;62.62
41596;BME280;27283;52.504;13.358;2022-11-15T12:17:01;100796.19;;;13.76;62.98
41596;BME280;27283;52.504;13.358;2022-11-15T12:19:35;100792.66;;;13.76;63.36
41596;BME280;27283;52.504;13.358;2022-11-15T12:22:13;100795.25;;;13.69;64.15
41596;BME280;27283;52.504;13.358;2022-11-15T12:24:54;100790.59;;;13.78;63.48
41596;BME280;27283;52.504;13.358;2022-11-15T12:27:33;100789.97;;;13.76;64.28
41596;BME280;27283;52.504;13.358;2022-11-15T12:30:11;100784.81;;;13.81;64.08
41596;BME280;27283;52.504;13.358;2022-11-15T12:32:54;100782.88;;;13.75;64.12
41596;BME280;27283;52.504;13.358;2022-11-15T12:35:31;100782.78;;;13.83;63.80
41596;BME280;27283;52.504;13.358;2022-11-15T12:38:09;100780.91;;;13.83;63.39
41596;BME280;27283;52.504;13.358;2022-11-15T12:41:14;100773.81;;;13.97;63.67
41596;BME280;27283;52.504;13.358;2022-11-15T12:43:47;100772.69;;;14.07;62.95
41596;BME280;27283;52.504;13.358;2022-11-15T12:46:25;100769.72;;;14.02;63.83
41596;BME280;27283;52.504;13.358;2022-11-15T12:49:46;100765.13;;;14.17;62.64
41596;BME280;27283;52.504;13.358;2022-11-15T12:52:18;100758.63;;;13.96;63.11
41596;BME280;27283;52.504;13.358;2022-11-15T12:55:01;100752.69;;;13.86;63.79
41596;BME280;27283;52.504;13.358;2022-11-15T12:57:39;100758.63;;;13.96;62.82
41596;BME280;27283;52.504;13.358;2022-11-15T13:00:38;100751.25;;;14.05;63.14
41596;BME280;27283;52.504;13.358;2022-11-15T13:03:28;100748.84;;;13.95;63.73
41596;BME280;27283;52.504;13.358;2022-11-15T13:06:09;100754.63;;;14.07;63.35
41596;BME280;27283;52.504;13.358;2022-11-15T13:09:00;100745.63;;;14.22;63.13
41596;BME280;27283;52.504;13.358;2022-11-15T13:11:48;100738.00;;;14.25;63.02
41596;BME280;27283;52.504;13.358;2022-11-15T13:14:40;100745.94;;;14.12;63.58
41596;BME280;27283;52.504;13.358;2022-11-15T13:17:29;100740.94;;;14.30;63.17
41596;BME280;27283;52.504;13.358;2022-11-15T13:20:22;100739.22;;;14.08;63.55
41596;BME280;27283;52.504;13.358;2022-11-15T13:23:09;100742.13;;;14.06;63.99
41596;BME280;27283;52.504;13.358;2022-11-15T13:28:46;100736.59;;;14.14;63.50
41596;BME280;27283;52.504;13.358;2022-11-15T13:31:27;100736.69;;;14.21;63.83
41596;BME280;27283;52.504;13.358;2022-11-15T13:34:01;100727.97;;;14.41;62.74
41596;BME280;27283;52.504;13.358;2022-11-15T13:36:54;100725.44;;;14.39;63.20
41596;BME280;27283;52.504;13.358;2022-11-15T13:39:31;100730.38;;;14.35;63.35
41596;BME280;27283;52.504;13.358;2022-11-15T13:42:15;100735.88;;;14.06;64.76
41596;BME280;27283;52.504;13.358;2022-11-15T13:44:57;100732.78;;;14.24;63.73
41596;BME280;27283;52.504;13.358;2022-11-15T13:47:32;100732.50;;;14.40;63.71
41596;BME280;27283;52.504;13.358;2022-11-15T13:50:05;100731.69;;;14.40;63.82
41596;BME280;27283;52.504;13.358;2022-11-15T13:52:42;100731.50;;;14.05;64.35
41596;BME280;27283;52.504;13.358;2022-11-15T13:55:23;100731.25;;;13.99;65.00
41596;BME280;27283;52.504;13.358;2022-11-15T13:58:00;100736.31;;;14.24;64.67
41596;BME280;27283;52.504;13.358;2022-11-15T14:00:38;100725.75;;;14.29;64.25
41596;BME280;27283;52.504;13.358;2022-11-15T14:03:19;100733.47;;;14.32;63.92
41596;BME280;27283;52.504;13.358;2022-11-15T14:06:08;100728.53;;;14.36;63.61
41596;BME280;27283;52.504;13.358;2022-11-15T14:09:00;100728.25;;;14.31;64.21